Chart 1
 

(A maximum of 50 rows are displayed here. Use "Export Data" to see all rows in the date range.)
Date Collected Temp WindChill
(Celcius)
WindSpeed
(km/hr)
Gust
(km/hr)
Wind Direction
(degrees)
2021-11-28 11:00 14.4 13.5 3 10 124
2021-11-28 10:00 12.5 12.1 2 6 125
2021-11-28 09:00 7.6 7.0 1 3 334
2021-11-28 08:00 5.2 5.2 1 3 6
2021-11-28 07:00 3.2 2.8 1 6 143
2021-11-28 06:00 2.4 2.4 0 2 16
2021-11-28 05:00 3.0 3.1 0 2 10
2021-11-28 04:00 3.5 3.5 0 2 36
2021-11-28 03:00 4.4 4.4 0 2 325
2021-11-28 02:00 4.4 4.4 1 2 21
2021-11-28 01:00 4.7 4.8 0 2 3
2021-11-28 00:00 5.8 5.9 1 3 355
2021-11-27 23:00 7.0 7.0 0 2 23
2021-11-27 22:00 7.5 7.5 1 2 24
2021-11-27 21:00 6.8 6.9 0 1 16
2021-11-27 20:00 8.0 8.1 1 3 114
2021-11-27 19:00 8.8 8.5 2 7 167
2021-11-27 18:00 9.8 9.7 2 5 185
2021-11-27 17:00 10.3 9.6 3 11 209
2021-11-27 16:00 11.4 10.9 1 8 217
2021-11-27 15:00 12.1 10.2 5 11 204
2021-11-27 14:00 13.0 10.9 5 11 198
2021-11-27 13:00 13.5 11.2 5 15 176
2021-11-27 12:00 13.0 11.8 4 10 185
2021-11-27 11:00 12.4 11.8 3 8 200
2021-11-27 10:00 11.6 10.7 4 8 210
2021-11-27 09:00 10.7 9.7 3 7 200
2021-11-27 08:00 8.0 7.9 1 3 161
2021-11-27 07:00 8.8 8.7 1 3 203
2021-11-27 06:00 8.4 8.1 2 5 185
2021-11-27 05:00 7.9 7.7 2 5 182
2021-11-27 04:00 7.4 7.5 0 2 217
2021-11-27 03:00 8.3 8.5 0 2 178
2021-11-27 02:00 9.8 9.6 2 7 185
2021-11-27 01:00 10.0 9.8 2 8 199
2021-11-27 00:00 10.2 10.1 2 5 197
2021-11-26 23:00 10.2 10.1 2 5 216
2021-11-26 22:00 10.5 9.6 4 9 211
2021-11-26 21:00 10.6 9.5 4 8 214
2021-11-26 20:00 10.8 9.6 4 10 213
2021-11-26 19:00 11.2 9.5 5 11 225
2021-11-26 18:00 11.8 11.2 3 8 221
2021-11-26 17:00 12.3 11.2 4 9 219
2021-11-26 16:00 13.3 10.2 6 14 223
2021-11-26 15:00 14.1 11.6 6 16 219
2021-11-26 14:00 15.5 13.1 6 11 223
2021-11-26 13:00 14.5 13.9 3 8 235
2021-11-26 12:00 13.8 13.3 3 6 244
2021-11-26 11:00 13.5 13.2 3 6 236
2021-11-26 10:00 12.8 12.8 1 3 238